Time;durP1;ratioP1;P1;durP2;ratioP2;P2;SDS_P1;SDS_P2;PMS_P1;PMS_P2;Temp;Humidity;BMP_temperature;BMP_pressure;BME280_temperature;BME280_humidity;BME280_pressure;Samples;Min_cycle;Max_cycle;Signal;HPM_P1;HPM_P2
2021/03/20 06:46:20;;;;;;;38.98;23.60;;;;;;;4.26;68.99;94357.83;834149;71;31063;-75
2021/03/20 07:01:53;;;;;;;31.87;19.75;;;;;;;4.11;70.22;94363.72;833730;71;32212;-78
2021/03/20 07:16:16;;;;;;;36.33;21.80;;;;;;;3.88;71.39;94366.94;819156;71;30922;-76
2021/03/20 07:31:12;;;;;;;33.83;20.40;;;;;;;3.25;74.52;94368.48;833986;71;30259;-78
2021/03/20 07:46:18;;;;;;;29.37;17.80;;;;;;;2.97;75.79;94370.25;834104;71;31539;-76
2021/03/20 08:01:25;;;;;;;31.27;18.62;;;;;;;2.78;76.96;94366.68;828257;71;29356;-75
2021/03/20 08:16:09;;;;;;;29.65;16.97;;;;;;;2.94;76.85;94381.89;834864;71;29372;-76
2021/03/20 08:31:25;;;;;;;29.63;18.27;;;;;;;2.97;79.05;94398.76;827485;71;31807;-78
2021/03/20 08:46:44;;;;;;;29.07;18.75;;;;;;;3.15;78.47;94382.88;816042;71;32318;-79
2021/03/20 09:16:43;;;;;;;30.08;18.98;;;;;;;3.97;76.47;94383.63;834450;71;31717;-80
2021/03/20 09:31:32;;;;;;;25.70;17.15;;;;;;;4.29;78.04;94369.02;828617;71;28573;-77
2021/03/20 09:46:36;;;;;;;24.98;16.27;;;;;;;4.44;77.33;94356.13;834191;71;31038;-77
2021/03/20 10:01:10;;;;;;;24.72;16.48;;;;;;;4.06;80.23;94354.61;828220;71;29292;-78
2021/03/20 10:16:11;;;;;;;22.95;16.12;;;;;;;4.70;76.86;94332.84;829216;71;28661;-79
2021/03/20 10:31:29;;;;;;;21.42;16.05;;;;;;;4.66;76.29;94322.17;815138;71;31846;-78
2021/03/20 10:46:20;;;;;;;22.73;15.32;;;;;;;5.00;74.51;94303.56;835259;70;31839;-78
2021/03/20 11:01:33;;;;;;;22.35;15.80;;;;;;;5.01;74.71;94309.05;816827;70;31774;-79
2021/03/20 13:46:15;;;;;;;18.32;13.13;;;;;;;3.23;87.39;94215.76;827750;71;32289;-76
2021/03/20 14:01:15;;;;;;;18.02;13.15;;;;;;;3.39;87.68;94202.39;826611;71;31725;-77
2021/03/20 14:16:09;;;;;;;16.45;12.05;;;;;;;2.93;88.79;94198.93;827996;71;30346;-77
2021/03/20 14:31:10;;;;;;;24.95;16.70;;;;;;;2.58;92.17;94198.11;828517;71;30383;-78
2021/03/20 14:46:13;;;;;;;17.70;12.70;;;;;;;2.22;93.22;94198.25;827973;71;32584;-76
2021/03/20 14:47:17;;;;;;;18.17;12.58;;;;;;;2.16;93.61;94195.59;808613;73;26440;-76
2021/03/20 15:01:40;;;;;;;19.37;14.33;;;;;;;1.96;95.13;94197.44;827370;71;32735;-79
2021/03/20 15:16:15;;;;;;;19.27;13.75;;;;;;;1.86;95.27;94197.31;827271;71;32731;-76
2021/03/20 15:31:13;;;;;;;10.15;8.33;;;;;;;1.82;95.92;94187.18;828585;71;32650;-79
2021/03/20 15:46:12;;;;;;;14.28;10.35;;;;;;;1.71;96.05;94201.02;828316;71;30278;-78
2021/03/20 16:01:20;;;;;;;19.05;12.95;;;;;;;1.48;96.82;94209.26;828344;71;32028;-77
2021/03/20 16:16:11;;;;;;;17.85;11.68;;;;;;;1.34;97.29;94222.23;828475;71;29723;-78
2021/03/20 16:31:17;;;;;;;17.10;11.93;;;;;;;1.06;97.79;94218.71;828467;71;33217;-77
2021/03/20 17:46:49;;;;;;;21.25;15.58;;;;;;;1.10;98.35;94240.99;815912;72;32962;-78
2021/03/20 18:01:14;;;;;;;18.07;13.72;;;;;;;1.02;98.20;94239.58;829370;71;31699;-80
2021/03/20 18:16:17;;;;;;;22.13;15.30;;;;;;;0.97;98.62;94244.64;825008;71;32741;-80
2021/03/20 18:31:14;;;;;;;22.00;13.95;;;;;;;0.97;98.67;94236.41;825829;71;32008;-78
2021/03/20 18:46:29;;;;;;;17.37;12.75;;;;;;;0.97;98.85;94244.16;834252;71;32752;-79
2021/03/20 19:01:10;;;;;;;14.65;10.90;;;;;;;0.93;99.03;94240.47;826887;71;30541;-81
2021/03/20 19:16:17;;;;;;;12.33;9.00;;;;;;;0.96;98.96;94237.41;834258;71;33026;-80
2021/03/20 19:31:21;;;;;;;10.53;8.00;;;;;;;0.99;98.90;94242.12;834803;71;32765;-78
2021/03/20 19:46:29;;;;;;;9.43;7.67;;;;;;;1.03;98.91;94239.83;834187;71;32719;-80
2021/03/20 20:16:10;;;;;;;8.23;6.55;;;;;;;1.03;98.79;94230.80;828665;71;30871;-81
2021/03/20 20:31:30;;;;;;;6.85;6.10;;;;;;;1.04;98.77;94240.64;824242;71;32867;-79
2021/03/20 20:46:29;;;;;;;6.95;5.70;;;;;;;0.99;98.85;94224.04;824911;71;32797;-79
2021/03/20 21:16:11;;;;;;;5.90;5.35;;;;;;;0.99;98.90;94194.34;828494;71;31244;-79
2021/03/20 21:31:22;;;;;;;7.40;5.70;;;;;;;0.95;99.18;94185.49;828095;71;33173;-79
2021/03/20 21:46:23;;;;;;;6.70;5.55;;;;;;;1.05;99.32;94180.97;835938;71;32656;-80
2021/03/20 22:01:47;;;;;;;8.80;6.47;;;;;;;1.12;98.84;94184.19;808067;72;33298;-80
2021/03/20 22:16:09;;;;;;;8.25;5.90;;;;;;;1.07;98.75;94169.11;829025;71;30279;-79
2021/03/20 22:31:14;;;;;;;7.87;7.05;;;;;;;0.94;98.84;94162.47;828806;71;30849;-81
2021/03/20 22:46:19;;;;;;;9.65;8.00;;;;;;;1.04;98.96;94177.35;829782;71;32767;-81
2021/03/20 23:01:28;;;;;;;12.63;9.20;;;;;;;1.04;98.93;94198.02;835198;71;33146;-79
2021/03/20 23:16:14;;;;;;;11.95;8.48;;;;;;;0.96;99.00;94204.34;835941;71;30322;-78
2021/03/20 23:31:12;;;;;;;7.75;6.80;;;;;;;0.84;99.05;94212.67;834239;71;30168;-78
2021/03/20 23:46:19;;;;;;;6.95;6.20;;;;;;;1.00;99.05;94204.16;834739;71;32779;-80
